createdAt,value
2019-01-06T00:01:52.535Z,74.84
2019-01-06T00:04:37.990Z,74.64
2019-01-06T00:07:42.810Z,74.52
2019-01-06T00:10:35.439Z,74.56
2019-01-06T00:13:37.033Z,74.68
2019-01-06T00:16:39.251Z,74.55
2019-01-06T00:19:24.886Z,74.55
2019-01-06T00:22:10.391Z,74.39
2019-01-06T00:25:15.023Z,74.36
2019-01-06T00:28:07.844Z,74.65
2019-01-06T00:30:53.220Z,74.47
2019-01-06T00:33:46.177Z,74.44
2019-01-06T00:36:33.110Z,74.54
2019-01-06T00:39:18.428Z,74.87
2019-01-06T00:42:03.821Z,74.89
2019-01-06T00:45:05.776Z,74.46
2019-01-06T00:47:50.973Z,74.89
2019-01-06T00:50:40.272Z,74.80
2019-01-06T00:53:39.321Z,74.99
2019-01-06T00:56:24.455Z,74.74
2019-01-06T00:59:23.472Z,74.67
2019-01-06T01:02:16.026Z,74.95
2019-01-06T01:05:21.050Z,75.25
2019-01-06T01:08:06.516Z,74.79
2019-01-06T01:10:53.339Z,74.71
2019-01-06T01:13:52.014Z,74.73
2019-01-06T01:16:50.810Z,74.50
2019-01-06T01:19:36.017Z,74.35
2019-01-06T01:22:22.762Z,74.38
2019-01-06T01:25:07.918Z,73.84
2019-01-06T01:27:53.085Z,74.03
2019-01-06T01:30:45.956Z,73.73
2019-01-06T01:33:39.637Z,73.10
2019-01-06T01:36:34.930Z,73.54
2019-01-06T01:39:25.044Z,74.00
2019-01-06T01:42:07.382Z,74.06
2019-01-06T01:44:54.179Z,74.18
2019-01-06T01:47:47.388Z,73.38
2019-01-06T01:50:39.739Z,73.74
2019-01-06T01:53:38.334Z,73.33
2019-01-06T01:56:25.120Z,73.56
2019-01-06T01:59:29.995Z,73.93
2019-01-06T02:02:22.667Z,73.73
2019-01-06T02:05:07.904Z,74.33
2019-01-06T02:08:00.666Z,74.70
2019-01-06T02:10:46.062Z,74.78
2019-01-06T02:13:42.467Z,74.68
2019-01-06T02:16:34.733Z,74.59
2019-01-06T02:19:16.089Z,74.73
2019-01-06T02:22:01.559Z,74.76
2019-01-06T02:24:51.161Z,74.88
2019-01-06T02:27:36.585Z,74.82
2019-01-06T02:30:26.981Z,74.22
2019-01-06T02:33:19.196Z,73.88
2019-01-06T02:36:23.993Z,73.55
2019-01-06T02:39:16.374Z,73.58
2019-01-06T02:42:12.263Z,73.78
2019-01-06T02:44:58.434Z,73.67
2019-01-06T02:47:45.228Z,73.41
2019-01-06T02:50:32.035Z,73.63
2019-01-06T02:53:30.752Z,74.16
2019-01-06T02:56:23.195Z,73.96
2019-01-06T02:59:12.540Z,74.35
2019-01-06T03:01:57.476Z,74.36
2019-01-06T03:04:47.411Z,73.88
2019-01-06T03:07:39.652Z,73.49
2019-01-06T03:10:25.130Z,73.63
2019-01-06T03:13:10.275Z,73.16
2019-01-06T03:15:48.232Z,73.57
2019-01-06T03:18:27.220Z,73.78
2019-01-06T03:21:25.758Z,73.51
2019-01-06T03:24:15.261Z,73.94
2019-01-06T03:26:52.963Z,73.61
2019-01-06T03:29:38.328Z,73.90
2019-01-06T03:32:23.814Z,73.97
2019-01-06T03:35:13.505Z,73.46
2019-01-06T03:37:56.017Z,73.62
2019-01-06T03:40:41.034Z,73.41
2019-01-06T03:43:30.488Z,73.26
2019-01-06T03:46:32.177Z,73.63
2019-01-06T03:49:21.560Z,74.16
2019-01-06T03:52:23.284Z,74.28
2019-01-06T03:55:20.042Z,73.97
2019-01-06T03:58:15.741Z,73.70
2019-01-06T04:01:00.874Z,73.84
2019-01-06T04:03:59.599Z,74.07
2019-01-06T04:06:46.402Z,74.16
2019-01-06T04:09:45.324Z,73.67
2019-01-06T04:12:38.203Z,73.48
2019-01-06T04:15:21.661Z,73.17
2019-01-06T04:18:23.467Z,73.65
2019-01-06T04:21:10.248Z,73.53
2019-01-06T04:23:49.060Z,73.91
2019-01-06T04:26:33.965Z,73.14
2019-01-06T04:29:19.207Z,73.29
2019-01-06T04:32:17.807Z,73.37
2019-01-06T04:35:19.669Z,73.81
2019-01-06T04:38:18.576Z,73.51
2019-01-06T04:41:08.103Z,73.19
2019-01-06T04:44:04.011Z,73.02
2019-01-06T04:46:59.748Z,73.18
2019-01-06T04:49:44.919Z,73.64
2019-01-06T04:52:37.650Z,73.30
2019-01-06T04:55:22.542Z,73.65
2019-01-06T04:58:07.517Z,72.57
2019-01-06T05:01:12.564Z,73.03
2019-01-06T05:03:57.671Z,72.94
2019-01-06T05:06:44.623Z,73.65
2019-01-06T05:09:29.906Z,72.97
2019-01-06T05:12:25.580Z,73.10
2019-01-06T05:15:15.211Z,73.71
2019-01-06T05:18:00.699Z,73.71
2019-01-06T05:20:53.262Z,74.07
2019-01-06T05:24:01.937Z,73.91
2019-01-06T05:27:06.715Z,74.07
2019-01-06T05:29:51.886Z,73.87
2019-01-06T05:32:37.413Z,74.20
2019-01-06T05:35:35.228Z,74.25
2019-01-06T05:38:28.236Z,74.27
2019-01-06T05:41:13.457Z,73.74
2019-01-06T05:43:58.670Z,73.60
2019-01-06T05:46:56.995Z,73.87
2019-01-06T05:50:02.233Z,74.44
2019-01-06T05:52:47.612Z,74.53
2019-01-06T05:55:37.795Z,74.38
2019-01-06T05:58:33.683Z,74.66
2019-01-06T06:01:20.490Z,74.91
2019-01-06T06:04:05.558Z,74.89
2019-01-06T06:06:58.273Z,74.83
2019-01-06T06:09:56.054Z,75.15
2019-01-06T06:12:42.838Z,74.80
2019-01-06T06:15:29.623Z,74.75
2019-01-06T06:18:15.024Z,74.52
2019-01-06T06:21:08.591Z,74.34
2019-01-06T06:23:54.008Z,74.23
2019-01-06T06:26:52.612Z,74.21
2019-01-06T06:29:38.220Z,74.11
2019-01-06T06:32:23.883Z,74.52
2019-01-06T06:35:25.798Z,73.79
2019-01-06T06:38:08.364Z,74.09
2019-01-06T06:40:49.966Z,74.60
2019-01-06T06:43:35.658Z,74.61
2019-01-06T06:46:20.593Z,74.81
2019-01-06T06:49:16.871Z,74.51
2019-01-06T06:52:06.718Z,74.57
2019-01-06T06:54:59.818Z,73.92
2019-01-06T06:58:31.708Z,73.88
2019-01-06T07:02:28.343Z,73.82
2019-01-06T07:05:14.046Z,73.67
2019-01-06T07:08:03.864Z,74.01
2019-01-06T07:10:50.116Z,74.34
2019-01-06T07:13:35.521Z,74.46
2019-01-06T07:16:43.607Z,74.31
2019-01-06T07:19:24.909Z,74.39
2019-01-06T07:22:21.133Z,73.80
2019-01-06T07:25:14.063Z,72.71
2019-01-06T07:28:09.681Z,72.67
2019-01-06T07:30:49.083Z,72.81
2019-01-06T07:33:26.128Z,72.76
2019-01-06T07:36:14.014Z,72.65
2019-01-06T07:39:04.405Z,72.91
2019-01-06T07:41:49.580Z,72.94
2019-01-06T07:44:39.735Z,73.26
2019-01-06T07:47:26.490Z,73.40
2019-01-06T07:50:13.288Z,73.32
2019-01-06T07:53:03.296Z,73.23
2019-01-06T07:55:48.492Z,73.49
2019-01-06T07:58:35.138Z,73.19
2019-01-06T08:01:30.598Z,72.87
2019-01-06T08:04:11.700Z,72.84
2019-01-06T08:06:58.713Z,73.11
2019-01-06T08:09:51.446Z,73.43
2019-01-06T08:12:47.054Z,72.96
2019-01-06T08:15:46.007Z,72.62
2019-01-06T08:18:28.543Z,72.40
2019-01-06T08:21:27.087Z,72.23
2019-01-06T08:24:12.397Z,72.22
2019-01-06T08:26:57.837Z,71.71
2019-01-06T08:29:53.538Z,71.32
2019-01-06T08:32:48.881Z,70.41
2019-01-06T08:35:35.565Z,70.20
2019-01-06T08:38:20.466Z,70.16
2019-01-06T08:41:05.891Z,70.35
2019-01-06T08:43:55.740Z,70.58
2019-01-06T08:47:00.540Z,70.56
2019-01-06T08:49:52.977Z,70.88
2019-01-06T08:52:39.792Z,71.03
2019-01-06T08:55:25.168Z,70.66
2019-01-06T08:58:04.632Z,70.36
2019-01-06T09:01:06.241Z,70.18
2019-01-06T09:03:51.796Z,70.25
2019-01-06T09:06:41.457Z,69.34
2019-01-06T09:09:26.630Z,68.63
2019-01-06T09:12:12.027Z,67.13
2019-01-06T09:14:57.358Z,66.86
2019-01-06T09:18:02.208Z,66.00
2019-01-06T09:20:57.683Z,65.90
2019-01-06T09:23:53.143Z,66.49
2019-01-06T09:26:34.741Z,66.65
2019-01-06T09:29:19.985Z,66.86
2019-01-06T09:32:03.817Z,66.99
2019-01-06T09:34:49.069Z,67.38
2019-01-06T09:37:44.476Z,67.59
2019-01-06T09:40:30.023Z,66.40
2019-01-06T09:43:22.999Z,65.94
2019-01-06T09:46:01.727Z,65.44
2019-01-06T09:48:47.052Z,64.98
2019-01-06T09:51:32.272Z,64.62
2019-01-06T09:54:17.480Z,64.87
2019-01-06T09:57:11.996Z,65.47
2019-01-06T10:00:02.672Z,65.60
2019-01-06T10:02:49.550Z,65.70
2019-01-06T10:05:34.913Z,66.30
2019-01-06T10:08:20.340Z,65.83
2019-01-06T10:11:09.935Z,65.46
2019-01-06T10:14:05.282Z,63.98
2019-01-06T10:16:50.776Z,64.18
2019-01-06T10:19:36.411Z,64.31
2019-01-06T10:22:21.599Z,64.39
2019-01-06T10:25:08.325Z,64.12
2019-01-06T10:27:53.884Z,63.43
2019-01-06T10:30:36.933Z,63.50
2019-01-06T10:33:14.807Z,63.60
2019-01-06T10:36:13.729Z,63.23
2019-01-06T10:38:58.976Z,62.73
2019-01-06T10:41:38.150Z,62.99
2019-01-06T10:44:30.535Z,62.74
2019-01-06T10:47:15.066Z,62.38
2019-01-06T10:50:00.512Z,61.93
2019-01-06T10:52:46.612Z,62.30
2019-01-06T10:55:44.674Z,62.12
2019-01-06T10:58:30.108Z,61.36
2019-01-06T11:01:14.393Z,60.62
2019-01-06T11:04:13.326Z,59.50
2019-01-06T11:06:58.819Z,58.30
2019-01-06T11:09:43.674Z,57.88
2019-01-06T11:12:29.283Z,58.24
2019-01-06T11:15:24.658Z,58.48
2019-01-06T11:18:11.340Z,58.24
2019-01-06T11:21:05.420Z,58.17
2019-01-06T11:24:04.418Z,57.65
2019-01-06T11:26:49.476Z,57.85
2019-01-06T11:29:36.303Z,57.61
2019-01-06T11:32:32.091Z,56.84
2019-01-06T11:35:17.347Z,56.26
2019-01-06T11:38:02.462Z,57.56
2019-01-06T11:40:54.018Z,57.29
2019-01-06T11:43:58.946Z,57.70
2019-01-06T11:46:51.549Z,57.69
2019-01-06T11:49:38.596Z,57.57
2019-01-06T11:52:28.148Z,58.25
2019-01-06T11:55:23.476Z,58.85
2019-01-06T11:58:08.796Z,59.15
2019-01-06T12:00:58.381Z,58.55
2019-01-06T12:03:55.301Z,58.92
2019-01-06T12:06:42.069Z,59.04
2019-01-06T12:09:21.944Z,58.49
2019-01-06T12:12:07.161Z,57.81
2019-01-06T12:14:51.454Z,57.70
2019-01-06T12:17:41.054Z,57.86
2019-01-06T12:20:26.740Z,57.71
2019-01-06T12:23:07.857Z,58.14
2019-01-06T12:25:53.104Z,58.18
2019-01-06T12:28:42.964Z,58.43
2019-01-06T12:31:32.529Z,57.98
2019-01-06T12:34:17.736Z,58.42
2019-01-06T12:37:12.785Z,58.97
2019-01-06T12:40:01.860Z,58.89
2019-01-06T12:43:06.573Z,58.68
2019-01-06T12:45:51.721Z,58.78
2019-01-06T12:48:44.211Z,58.89
2019-01-06T12:51:34.020Z,58.59
2019-01-06T12:54:35.637Z,59.21
2019-01-06T12:57:20.989Z,58.91
2019-01-06T13:00:07.866Z,58.77
2019-01-06T13:02:53.391Z,59.25
2019-01-06T13:05:38.586Z,59.21
2019-01-06T13:08:43.239Z,59.49
2019-01-06T13:11:45.413Z,59.25
2019-01-06T13:14:41.066Z,59.40
2019-01-06T13:17:37.289Z,59.91
2019-01-06T13:20:38.957Z,59.57
2019-01-06T13:23:28.533Z,60.64
2019-01-06T13:26:12.900Z,60.72
2019-01-06T13:28:51.424Z,61.38
2019-01-06T13:31:56.450Z,61.06
2019-01-06T13:34:41.382Z,60.88
2019-01-06T13:37:33.873Z,61.04
2019-01-06T13:40:24.478Z,60.96
2019-01-06T13:43:09.482Z,61.02
2019-01-06T13:45:55.029Z,60.97
2019-01-06T13:48:47.920Z,60.93
2019-01-06T13:51:40.809Z,61.40
2019-01-06T13:54:30.423Z,60.01
2019-01-06T13:57:13.803Z,60.48
2019-01-06T14:00:03.337Z,60.94
2019-01-06T14:02:49.163Z,61.10
2019-01-06T14:05:34.553Z,61.34
2019-01-06T14:08:19.794Z,60.81
2019-01-06T14:11:05.263Z,60.73
2019-01-06T14:13:50.735Z,60.97
2019-01-06T14:16:36.498Z,61.70
2019-01-06T14:19:32.507Z,61.41
2019-01-06T14:22:30.035Z,62.36
2019-01-06T14:25:15.166Z,62.62
2019-01-06T14:28:13.363Z,62.89
2019-01-06T14:31:05.921Z,63.19
2019-01-06T14:34:01.721Z,63.42
2019-01-06T14:36:48.722Z,63.96
2019-01-06T14:39:36.410Z,63.94
2019-01-06T14:42:23.217Z,64.13
2019-01-06T14:45:08.941Z,64.51
2019-01-06T14:47:49.862Z,64.92
2019-01-06T14:50:33.646Z,65.32
2019-01-06T14:53:11.466Z,65.15
2019-01-06T14:56:01.077Z,65.84
2019-01-06T14:58:46.637Z,66.51
2019-01-06T15:01:33.314Z,66.60
2019-01-06T15:04:18.798Z,67.29
2019-01-06T15:07:04.207Z,67.08
2019-01-06T15:09:49.436Z,66.58
2019-01-06T15:12:40.698Z,67.61
2019-01-06T15:15:34.688Z,68.37
2019-01-06T15:18:19.799Z,68.27
2019-01-06T15:21:24.430Z,68.57
2019-01-06T15:24:09.501Z,68.86
2019-01-06T15:27:08.197Z,69.93
2019-01-06T15:29:53.660Z,70.43
2019-01-06T15:32:38.826Z,70.55
2019-01-06T15:35:23.637Z,71.17
2019-01-06T15:38:16.396Z,71.66
2019-01-06T15:41:01.802Z,72.32
2019-01-06T15:43:49.868Z,72.76
2019-01-06T15:46:52.068Z,72.66
2019-01-06T15:49:45.333Z,72.85
2019-01-06T15:52:47.253Z,73.07
2019-01-06T15:55:45.953Z,73.00
2019-01-06T15:58:27.153Z,73.45
2019-01-06T16:01:10.883Z,73.46
2019-01-06T16:04:05.744Z,73.31
2019-01-06T16:06:47.347Z,73.74
2019-01-06T16:09:45.933Z,73.29
2019-01-06T16:12:35.575Z,73.41
2019-01-06T16:15:25.419Z,73.82
2019-01-06T16:18:10.617Z,74.54
2019-01-06T16:21:06.551Z,74.61
2019-01-06T16:23:51.998Z,75.30
2019-01-06T16:26:37.758Z,76.04
2019-01-06T16:29:39.868Z,76.52
2019-01-06T16:32:29.980Z,76.90
2019-01-06T16:35:15.443Z,77.18
2019-01-06T16:38:08.364Z,77.25
2019-01-06T16:40:57.635Z,77.38
2019-01-06T16:43:50.544Z,77.64
2019-01-06T16:46:35.878Z,77.19
2019-01-06T16:49:25.423Z,76.48
2019-01-06T16:52:10.658Z,75.62
2019-01-06T16:54:56.526Z,74.96
2019-01-06T16:57:43.361Z,74.65
2019-01-06T17:00:45.049Z,74.32
2019-01-06T17:03:32.061Z,73.91
2019-01-06T17:06:36.977Z,73.98
2019-01-06T17:09:25.269Z,74.17
2019-01-06T17:12:10.316Z,74.55
2019-01-06T17:15:05.140Z,74.89
2019-01-06T17:18:03.993Z,74.36
2019-01-06T17:20:50.720Z,73.99
2019-01-06T17:23:44.255Z,74.40
2019-01-06T17:26:29.535Z,75.04
2019-01-06T17:29:16.306Z,75.02
2019-01-06T17:32:10.783Z,74.22
2019-01-06T17:35:00.619Z,74.08
2019-01-06T17:37:59.273Z,74.45
2019-01-06T17:40:46.088Z,74.61
2019-01-06T17:43:35.541Z,74.55
2019-01-06T17:46:20.960Z,74.04
2019-01-06T17:49:16.346Z,73.87
2019-01-06T17:51:57.430Z,74.18
2019-01-06T17:54:42.307Z,72.66
2019-01-06T17:57:38.137Z,72.43
2019-01-06T18:00:24.930Z,72.89
2019-01-06T18:03:17.300Z,73.50
2019-01-06T18:06:03.969Z,73.44
2019-01-06T18:08:59.655Z,73.10
2019-01-06T18:11:43.279Z,72.59
2019-01-06T18:14:28.542Z,72.33
2019-01-06T18:17:33.669Z,72.46
2019-01-06T18:20:21.607Z,72.22
2019-01-06T18:23:23.464Z,72.58
2019-01-06T18:26:22.095Z,72.52
2019-01-06T18:29:17.820Z,72.52
2019-01-06T18:32:05.045Z,73.00
2019-01-06T18:35:09.794Z,73.28
2019-01-06T18:37:56.604Z,73.04
2019-01-06T18:40:45.981Z,72.36
2019-01-06T18:43:38.599Z,72.65
2019-01-06T18:46:23.800Z,72.79
2019-01-06T18:49:08.962Z,72.66
2019-01-06T18:52:04.482Z,72.51
2019-01-06T18:54:51.252Z,72.43
2019-01-06T18:57:53.006Z,72.49
2019-01-06T19:00:48.669Z,72.26
2019-01-06T19:03:33.627Z,72.26
2019-01-06T19:06:14.197Z,72.02
2019-01-06T19:09:19.287Z,72.66
2019-01-06T19:12:06.027Z,72.87
2019-01-06T19:14:51.486Z,72.66
2019-01-06T19:17:40.769Z,72.54
2019-01-06T19:20:31.590Z,73.05
2019-01-06T19:23:21.708Z,73.19
2019-01-06T19:26:23.833Z,73.51
2019-01-06T19:29:09.188Z,73.36
2019-01-06T19:31:54.716Z,73.32
2019-01-06T19:34:53.065Z,73.33
2019-01-06T19:37:37.796Z,73.63
2019-01-06T19:40:27.507Z,73.54
2019-01-06T19:43:16.736Z,73.58
2019-01-06T19:46:18.753Z,73.89
2019-01-06T19:49:04.613Z,73.58
2019-01-06T19:51:54.163Z,72.87
2019-01-06T19:54:43.996Z,73.25
2019-01-06T19:57:36.634Z,73.38
2019-01-06T20:00:22.617Z,73.74
2019-01-06T20:03:08.065Z,73.84
2019-01-06T20:05:53.436Z,73.87
2019-01-06T20:08:43.680Z,73.99
2019-01-06T20:11:29.076Z,74.31
2019-01-06T20:14:18.623Z,74.09
2019-01-06T20:17:04.094Z,73.99
2019-01-06T20:19:48.399Z,74.24
2019-01-06T20:22:38.316Z,74.43
2019-01-06T20:25:23.384Z,74.47
2019-01-06T20:28:25.480Z,74.29
2019-01-06T20:31:11.149Z,74.29
2019-01-06T20:34:01.078Z,74.37
2019-01-06T20:36:53.984Z,74.37
2019-01-06T20:39:38.999Z,74.30
2019-01-06T20:42:24.487Z,74.14
2019-01-06T20:45:09.715Z,73.95
2019-01-06T20:47:49.942Z,73.69
2019-01-06T20:50:34.962Z,72.63
2019-01-06T20:53:20.126Z,72.10
2019-01-06T20:56:05.328Z,71.77
2019-01-06T20:58:50.739Z,71.49
2019-01-06T21:01:40.485Z,71.33
2019-01-06T21:04:27.580Z,71.58
2019-01-06T21:07:17.527Z,70.96
2019-01-06T21:10:02.695Z,71.20
2019-01-06T21:12:58.544Z,71.80
2019-01-06T21:15:54.782Z,72.01
2019-01-06T21:18:44.189Z,71.83
2019-01-06T21:21:49.127Z,71.76
2019-01-06T21:24:34.987Z,71.52
2019-01-06T21:27:30.552Z,71.61
2019-01-06T21:30:17.387Z,71.89
2019-01-06T21:33:05.324Z,71.50
2019-01-06T21:36:09.724Z,71.64
2019-01-06T21:39:06.292Z,71.55
2019-01-06T21:41:53.151Z,72.02
2019-01-06T21:44:51.849Z,71.98
2019-01-06T21:47:53.571Z,71.94
2019-01-06T21:50:38.641Z,72.07
2019-01-06T21:53:24.460Z,72.55
2019-01-06T21:56:29.415Z,72.86
2019-01-06T21:59:10.485Z,73.16
2019-01-06T22:01:55.854Z,72.67
2019-01-06T22:04:51.828Z,72.83
2019-01-06T22:07:37.039Z,71.95
2019-01-06T22:10:27.105Z,72.67
2019-01-06T22:13:28.805Z,73.31
2019-01-06T22:16:12.625Z,73.59
2019-01-06T22:18:58.084Z,74.10
2019-01-06T22:21:50.511Z,74.18
2019-01-06T22:24:46.129Z,74.38
2019-01-06T22:27:51.094Z,73.91
2019-01-06T22:30:43.365Z,74.01
2019-01-06T22:33:28.564Z,74.10
2019-01-06T22:36:13.966Z,74.37
2019-01-06T22:38:56.908Z,74.60
2019-01-06T22:41:41.219Z,74.86
2019-01-06T22:44:24.599Z,74.82
2019-01-06T22:47:17.220Z,74.71
2019-01-06T22:50:02.496Z,74.67
2019-01-06T22:52:47.915Z,74.88
2019-01-06T22:55:41.277Z,74.87
2019-01-06T22:58:26.501Z,74.95
2019-01-06T23:01:13.555Z,74.48
2019-01-06T23:03:57.839Z,74.36
2019-01-06T23:06:43.570Z,74.09
2019-01-06T23:09:33.356Z,74.47
2019-01-06T23:12:18.512Z,74.82
2019-01-06T23:15:04.079Z,74.29
2019-01-06T23:17:49.509Z,74.25
2019-01-06T23:20:39.337Z,74.70
2019-01-06T23:23:32.338Z,75.13
2019-01-06T23:26:14.157Z,75.48
2019-01-06T23:28:56.398Z,75.81
2019-01-06T23:31:55.134Z,76.04
2019-01-06T23:34:44.492Z,75.95
2019-01-06T23:37:37.882Z,75.93
2019-01-06T23:40:23.144Z,75.64
2019-01-06T23:43:12.579Z,75.44
2019-01-06T23:46:08.075Z,75.59
2019-01-06T23:48:57.607Z,75.26
2019-01-06T23:51:42.804Z,75.44
2019-01-06T23:54:25.708Z,75.54
2019-01-06T23:57:11.183Z,75.42
